Time;durP1;ratioP1;P1;durP2;ratioP2;P2;SDS_P1;SDS_P2;PMS_P1;PMS_P2;Temp;Humidity;BMP_temperature;BMP_pressure;BME280_temperature;BME280_humidity;BME280_pressure;Samples;Min_cycle;Max_cycle;Signal;HPM_P1;HPM_P2
2024/01/05 00:01:53;;;;;;;4.30;2.03;;;;;;;-146.82;100.00;71671.09;5019355;28;20034;-73
2024/01/05 00:04:19;;;;;;;3.88;2.28;;;;;;;-146.82;100.00;71671.09;5021481;28;20355;-76
2024/01/05 00:06:46;;;;;;;7.10;2.63;;;;;;;-146.82;100.00;71671.09;5020985;28;21017;-75
2024/01/05 00:09:12;;;;;;;4.10;3.00;;;;;;;-146.82;100.00;71671.09;5021485;28;20033;-74
2024/01/05 00:11:38;;;;;;;3.75;2.38;;;;;;;-146.82;100.00;71671.09;5020533;28;20112;-75
2024/01/05 00:14:05;;;;;;;5.00;2.78;;;;;;;-146.82;100.00;71671.09;5021258;28;20057;-74
2024/01/05 00:16:30;;;;;;;4.80;2.70;;;;;;;-146.82;100.00;71671.09;5020471;28;20112;-75
2024/01/05 00:18:59;;;;;;;3.50;2.35;;;;;;;-146.82;100.00;71671.09;5027107;28;20482;-76
2024/01/05 00:21:27;;;;;;;3.70;3.00;;;;;;;-146.82;100.00;71671.09;5022821;28;20151;-75
2024/01/05 00:23:55;;;;;;;5.07;3.53;;;;;;;-146.82;100.00;71671.09;5019292;28;20040;-74
2024/01/05 00:26:23;;;;;;;4.78;3.03;;;;;;;-146.82;100.00;71671.09;5020600;28;20038;-74
2024/01/05 00:28:55;;;;;;;4.88;2.47;;;;;;;-146.82;100.00;71671.09;5021857;28;20032;-74
2024/01/05 00:31:21;;;;;;;5.97;3.20;;;;;;;-146.82;100.00;71671.09;5019603;28;20029;-73
2024/01/05 00:33:47;;;;;;;3.78;2.67;;;;;;;-146.82;100.00;71671.09;5019848;28;20068;-75
2024/01/05 00:36:14;;;;;;;5.88;3.38;;;;;;;-146.82;100.00;71671.09;5020705;28;20038;-73
2024/01/05 00:38:46;;;;;;;6.07;3.22;;;;;;;-146.82;100.00;71671.09;5021739;28;20021;-73
2024/01/05 00:41:14;;;;;;;4.03;3.30;;;;;;;-146.82;100.00;71671.09;5020723;28;20075;-72
2024/01/05 00:43:41;;;;;;;5.60;3.15;;;;;;;-146.82;100.00;71671.09;5023504;28;20128;-74
2024/01/05 00:46:08;;;;;;;5.55;2.88;;;;;;;-146.82;100.00;71671.09;5022871;28;20067;-73
2024/01/05 00:48:34;;;;;;;4.65;3.00;;;;;;;-146.82;100.00;71671.09;5022198;28;20021;-74
2024/01/05 00:51:01;;;;;;;5.65;2.90;;;;;;;-146.82;100.00;71671.09;5021993;28;20144;-74
2024/01/05 00:53:28;;;;;;;5.28;3.20;;;;;;;-146.82;100.00;71671.09;5021220;28;20022;-76
2024/01/05 00:55:55;;;;;;;5.05;3.22;;;;;;;-146.82;100.00;71671.09;5020596;28;20364;-75
2024/01/05 00:58:23;;;;;;;6.32;2.88;;;;;;;-146.82;100.00;71671.09;5020948;28;20372;-73
2024/01/05 01:00:49;;;;;;;5.45;2.83;;;;;;;-146.82;100.00;71671.09;5021075;28;20035;-75
2024/01/05 01:03:16;;;;;;;3.95;2.50;;;;;;;-146.82;100.00;71671.09;5021673;28;20088;-74
2024/01/05 01:05:48;;;;;;;3.22;2.40;;;;;;;-146.82;100.00;71671.09;5019250;28;20061;-74
2024/01/05 01:08:14;;;;;;;4.47;2.72;;;;;;;-146.82;100.00;71671.09;5021453;28;20041;-73
2024/01/05 01:10:41;;;;;;;6.05;2.63;;;;;;;-146.82;100.00;71671.09;5024868;28;20068;-75
2024/01/05 01:13:08;;;;;;;3.88;2.67;;;;;;;-146.82;100.00;71671.09;5025021;28;20022;-73
2024/01/05 01:15:34;;;;;;;3.17;2.33;;;;;;;-146.82;100.00;71671.09;5024353;28;20379;-74
2024/01/05 01:18:02;;;;;;;4.03;2.75;;;;;;;-146.82;100.00;71671.09;5025677;28;20046;-76
2024/01/05 01:20:29;;;;;;;3.85;2.67;;;;;;;-146.82;100.00;71671.09;5028242;28;20053;-72
2024/01/05 01:22:54;;;;;;;4.82;2.22;;;;;;;-146.82;100.00;71671.09;5026239;28;20061;-76
2024/01/05 01:25:19;;;;;;;4.63;2.75;;;;;;;-146.82;100.00;71671.09;5025212;28;20103;-76
2024/01/05 01:27:45;;;;;;;5.03;2.40;;;;;;;-146.82;100.00;71671.09;5023251;28;20060;-73
2024/01/05 01:30:13;;;;;;;4.85;2.45;;;;;;;-146.82;100.00;71671.09;5024376;28;20039;-74
2024/01/05 01:32:44;;;;;;;3.97;2.67;;;;;;;-146.82;100.00;71671.09;5023765;28;20026;-74
2024/01/05 01:35:13;;;;;;;3.30;2.45;;;;;;;-146.82;100.00;71671.09;5026885;28;20048;-75
2024/01/05 01:37:41;;;;;;;7.70;3.97;;;;;;;-146.82;100.00;71671.09;5018958;28;20037;-76
2024/01/05 01:40:08;;;;;;;4.53;3.03;;;;;;;-146.82;100.00;71671.09;5022816;28;20450;-74
2024/01/05 01:42:37;;;;;;;4.70;2.92;;;;;;;-146.82;100.00;71671.09;5023384;28;20403;-73
2024/01/05 01:45:03;;;;;;;5.70;2.63;;;;;;;-146.82;100.00;71671.09;5023431;28;20034;-75
2024/01/05 01:47:29;;;;;;;5.25;3.08;;;;;;;-146.82;100.00;71671.09;5023501;28;20028;-75
2024/01/05 01:49:58;;;;;;;4.38;2.85;;;;;;;-146.82;100.00;71671.09;5022972;28;20109;-74
2024/01/05 01:52:30;;;;;;;4.43;3.08;;;;;;;-146.82;100.00;71671.09;5023459;28;20501;-74
2024/01/05 01:55:04;;;;;;;6.22;3.10;;;;;;;-146.82;100.00;71671.09;5023136;28;20025;-75
2024/01/05 01:57:30;;;;;;;5.28;3.17;;;;;;;-146.82;100.00;71671.09;5023549;28;20021;-73
2024/01/05 02:00:16;;;;;;;4.75;2.78;;;;;;;-146.82;100.00;71671.09;5012543;28;20399;-74
2024/01/05 02:02:42;;;;;;;6.45;3.08;;;;;;;-146.82;100.00;71671.09;5037816;28;20103;-73
2024/01/05 02:05:08;;;;;;;5.43;3.15;;;;;;;-146.82;100.00;71671.09;5022289;28;20029;-73
2024/01/05 02:07:36;;;;;;;4.40;2.60;;;;;;;-146.82;100.00;71671.09;5024023;28;20380;-76
2024/01/05 02:10:02;;;;;;;4.07;2.45;;;;;;;-146.82;100.00;71671.09;5022691;28;20034;-75
2024/01/05 02:12:28;;;;;;;4.28;2.97;;;;;;;-146.82;100.00;71671.09;5021787;28;20199;-74
2024/01/05 02:14:56;;;;;;;5.53;2.97;;;;;;;-146.82;100.00;71671.09;5020418;28;20041;-74
2024/01/05 02:17:32;;;;;;;4.93;2.92;;;;;;;-146.82;100.00;71671.09;5021017;28;20049;-74
2024/01/05 02:19:59;;;;;;;3.97;3.10;;;;;;;-146.82;100.00;71671.09;5003483;28;20049;-74
2024/01/05 02:22:32;;;;;;;5.63;2.88;;;;;;;-146.82;100.00;71671.09;5020591;28;20175;-73
2024/01/05 02:25:05;;;;;;;6.45;2.67;;;;;;;-146.82;100.00;71671.09;5012168;28;20076;-73
2024/01/05 02:27:33;;;;;;;6.90;3.30;;;;;;;-146.82;100.00;71671.09;5020855;28;20056;-73
2024/01/05 02:30:00;;;;;;;2.60;2.38;;;;;;;-146.82;100.00;71671.09;5004836;28;20044;-72
2024/01/05 02:32:26;;;;;;;3.15;2.67;;;;;;;-146.82;100.00;71671.09;5020862;28;20088;-76
2024/01/05 02:34:51;;;;;;;3.47;2.67;;;;;;;-146.82;100.00;71671.09;5020995;28;20045;-75
2024/01/05 02:37:18;;;;;;;2.95;2.30;;;;;;;-146.82;100.00;71671.09;5019246;28;20038;-75
2024/01/05 02:39:44;;;;;;;6.45;2.67;;;;;;;-146.82;100.00;71671.09;5015938;28;20126;-72
2024/01/05 02:42:11;;;;;;;4.95;3.22;;;;;;;-146.82;100.00;71671.09;5018405;28;20068;-74
2024/01/05 02:44:38;;;;;;;6.45;2.65;;;;;;;-146.82;100.00;71671.09;5021127;28;20037;-74
2024/01/05 02:47:05;;;;;;;5.78;2.75;;;;;;;-146.82;100.00;71671.09;5022574;28;20061;-74
2024/01/05 02:49:31;;;;;;;4.45;2.80;;;;;;;-146.82;100.00;71671.09;5023092;28;20044;-74
2024/01/05 02:51:56;;;;;;;4.07;2.97;;;;;;;-146.82;100.00;71671.09;5021735;28;20467;-76
2024/01/05 02:54:22;;;;;;;4.15;2.92;;;;;;;-146.82;100.00;71671.09;5022851;28;20490;-75
2024/01/05 02:56:56;;;;;;;4.18;3.03;;;;;;;-146.82;100.00;71671.09;5021373;28;20034;-74
2024/01/05 02:59:22;;;;;;;5.97;3.17;;;;;;;-146.82;100.00;71671.09;5022049;28;20124;-75
2024/01/05 03:01:49;;;;;;;6.10;3.67;;;;;;;-146.82;100.00;71671.09;5022183;28;20506;-74
2024/01/05 03:04:19;;;;;;;6.15;3.08;;;;;;;-146.82;100.00;71671.09;5022576;28;20030;-75
2024/01/05 03:06:48;;;;;;;5.70;3.10;;;;;;;-146.82;100.00;71671.09;5023262;28;20036;-75
2024/01/05 03:09:14;;;;;;;4.32;2.80;;;;;;;-146.82;100.00;71671.09;5024500;28;20022;-75
2024/01/05 03:11:47;;;;;;;4.80;3.33;;;;;;;-146.82;100.00;71671.09;5026658;28;20022;-76
2024/01/05 03:14:15;;;;;;;5.75;3.35;;;;;;;-146.82;100.00;71671.09;5014739;28;20392;-74
2024/01/05 03:16:40;;;;;;;3.70;2.58;;;;;;;-146.82;100.00;71671.09;5024258;28;20534;-74
2024/01/05 03:19:06;;;;;;;3.95;2.70;;;;;;;-146.82;100.00;71671.09;5024135;28;20145;-75
2024/01/05 03:21:33;;;;;;;7.55;3.20;;;;;;;-146.82;100.00;71671.09;5024014;28;20057;-74
2024/01/05 03:24:00;;;;;;;4.80;3.10;;;;;;;-146.82;100.00;71671.09;5020843;28;20042;-74
2024/01/05 03:26:27;;;;;;;3.95;2.95;;;;;;;-146.82;100.00;71671.09;5022007;28;20899;-74
2024/01/05 03:28:56;;;;;;;5.50;3.40;;;;;;;-146.82;100.00;71671.09;5022347;28;20454;-74
2024/01/05 03:31:24;;;;;;;4.88;3.05;;;;;;;-146.82;100.00;71671.09;5021235;28;20030;-74
2024/01/05 03:33:51;;;;;;;4.55;2.90;;;;;;;-146.82;100.00;71671.09;5021945;28;20025;-74
2024/01/05 03:36:20;;;;;;;4.85;3.28;;;;;;;-146.82;100.00;71671.09;5020836;28;20030;-75
2024/01/05 03:38:46;;;;;;;3.95;2.53;;;;;;;-146.82;100.00;71671.09;5021855;28;20033;-73
2024/01/05 03:41:13;;;;;;;4.43;2.60;;;;;;;-146.82;100.00;71671.09;5022118;28;20040;-74
2024/01/05 03:43:39;;;;;;;3.42;2.67;;;;;;;-146.82;100.00;71671.09;5021096;28;20125;-73
2024/01/05 03:46:11;;;;;;;6.05;3.10;;;;;;;-146.82;100.00;71671.09;5019699;28;20194;-75
2024/01/05 03:48:38;;;;;;;4.90;3.45;;;;;;;-146.82;100.00;71671.09;5022027;28;20025;-74
2024/01/05 03:51:10;;;;;;;5.90;3.10;;;;;;;-146.82;100.00;71671.09;5020880;28;20462;-74
2024/01/05 03:53:58;;;;;;;4.80;2.83;;;;;;;-146.82;100.00;71671.09;5020506;28;20044;-74
2024/01/05 03:56:24;;;;;;;6.32;3.00;;;;;;;-146.82;100.00;71671.09;5022529;28;20037;-72
2024/01/05 03:58:49;;;;;;;9.13;3.42;;;;;;;-146.82;100.00;71671.09;5021368;28;20513;-75
2024/01/05 04:01:16;;;;;;;7.00;3.60;;;;;;;-146.82;100.00;71671.09;5020379;28;20029;-75
2024/01/05 04:03:43;;;;;;;8.15;4.13;;;;;;;-146.82;100.00;71671.09;5021002;28;20030;-74
2024/01/05 04:06:26;;;;;;;9.52;4.57;;;;;;;-146.82;100.00;71671.09;5018580;28;20037;-75
2024/01/05 04:08:54;;;;;;;7.95;3.63;;;;;;;-146.82;100.00;71671.09;5022063;28;20037;-74
2024/01/05 04:11:22;;;;;;;5.80;3.65;;;;;;;-146.82;100.00;71671.09;5021602;28;20108;-74
2024/01/05 04:13:48;;;;;;;7.55;3.50;;;;;;;-146.82;100.00;71671.09;5019295;28;20030;-74
2024/01/05 04:16:16;;;;;;;9.32;4.47;;;;;;;-146.82;100.00;71671.09;5019494;28;20018;-75
2024/01/05 04:18:42;;;;;;;7.93;4.47;;;;;;;-146.82;100.00;71671.09;5021651;28;20032;-74
2024/01/05 04:21:09;;;;;;;7.47;4.22;;;;;;;-146.82;100.00;71671.09;5020511;28;20053;-76
2024/01/05 04:23:35;;;;;;;11.65;4.75;;;;;;;-146.82;100.00;71671.09;5019944;28;20044;-73
2024/01/05 04:26:03;;;;;;;6.03;3.92;;;;;;;-146.82;100.00;71671.09;5020785;28;20119;-73
2024/01/05 04:28:31;;;;;;;7.10;3.05;;;;;;;-146.82;100.00;71671.09;5021234;28;20022;-73
2024/01/05 04:30:59;;;;;;;7.93;3.88;;;;;;;-146.82;100.00;71671.09;5021284;28;20030;-73
2024/01/05 04:33:27;;;;;;;5.72;4.00;;;;;;;-146.82;100.00;71671.09;5021394;28;20080;-74
2024/01/05 04:35:54;;;;;;;6.28;4.00;;;;;;;-146.82;100.00;71671.09;5021462;28;20431;-74
2024/01/05 04:38:22;;;;;;;5.55;3.85;;;;;;;-146.82;100.00;71671.09;5020470;28;20033;-76
2024/01/05 04:40:48;;;;;;;5.53;3.05;;;;;;;-146.82;100.00;71671.09;5035728;28;20116;-74
2024/01/05 04:43:16;;;;;;;6.55;3.45;;;;;;;-146.82;100.00;71671.09;5021160;28;20150;-73
2024/01/05 04:45:42;;;;;;;4.88;3.35;;;;;;;-146.82;100.00;71671.09;5027606;28;20026;-74
2024/01/05 04:48:08;;;;;;;3.92;3.13;;;;;;;-146.82;100.00;71671.09;5026976;28;20038;-74
2024/01/05 04:50:35;;;;;;;5.85;3.70;;;;;;;-146.82;100.00;71671.09;5026694;28;20026;-76
2024/01/05 04:53:07;;;;;;;3.20;2.75;;;;;;;-146.82;100.00;71671.09;5025470;28;20048;-73
2024/01/05 04:55:33;;;;;;;5.32;4.25;;;;;;;-146.82;100.00;71671.09;5025536;28;20048;-73
2024/01/05 04:58:04;;;;;;;5.43;4.00;;;;;;;-146.82;100.00;71671.09;5026485;28;20022;-75
2024/01/05 05:00:33;;;;;;;4.25;2.95;;;;;;;-146.82;100.00;71671.09;5026931;28;20053;-73
2024/01/05 05:03:13;;;;;;;5.70;3.60;;;;;;;-146.82;100.00;71671.09;5026183;28;20024;-74
2024/01/05 05:05:59;;;;;;;4.53;3.25;;;;;;;-146.82;100.00;71671.09;5026530;28;20030;-74
2024/01/05 05:08:25;;;;;;;8.35;4.20;;;;;;;-146.82;100.00;71671.09;5026789;28;20037;-75
2024/01/05 05:10:51;;;;;;;4.40;3.45;;;;;;;-146.82;100.00;71671.09;5026760;28;20037;-75
2024/01/05 05:13:17;;;;;;;4.10;3.22;;;;;;;-146.82;100.00;71671.09;5025150;28;20071;-74
2024/01/05 05:15:44;;;;;;;4.80;3.17;;;;;;;-146.82;100.00;71671.09;5026325;28;20038;-74
2024/01/05 05:18:11;;;;;;;3.65;3.17;;;;;;;-146.82;100.00;71671.09;5027026;28;20030;-72
2024/01/05 05:20:38;;;;;;;4.32;3.60;;;;;;;-146.82;100.00;71671.09;5025685;28;20053;-72
2024/01/05 05:23:05;;;;;;;4.55;3.10;;;;;;;-146.82;100.00;71671.09;5041769;28;20026;-75
2024/01/05 05:25:32;;;;;;;5.00;2.58;;;;;;;-146.82;100.00;71671.09;5026612;28;20029;-73
2024/01/05 05:27:59;;;;;;;5.20;3.55;;;;;;;-146.82;100.00;71671.09;5025766;28;20049;-74
2024/01/05 05:30:27;;;;;;;5.43;3.05;;;;;;;-146.82;100.00;71671.09;5026846;28;20044;-73
2024/01/05 05:32:54;;;;;;;7.47;3.53;;;;;;;-146.82;100.00;71671.09;5027594;28;20033;-76
2024/01/05 05:35:22;;;;;;;3.95;3.17;;;;;;;-146.82;100.00;71671.09;5026270;28;20064;-74
2024/01/05 05:37:51;;;;;;;5.40;2.88;;;;;;;-146.82;100.00;71671.09;5027088;28;20048;-74
2024/01/05 05:40:16;;;;;;;5.43;3.65;;;;;;;-146.82;100.00;71671.09;5025299;28;20025;-74
2024/01/05 05:42:44;;;;;;;5.82;3.55;;;;;;;-146.82;100.00;71671.09;5026935;28;20040;-72
2024/01/05 05:45:12;;;;;;;5.57;3.65;;;;;;;-146.82;100.00;71671.09;5025411;28;20068;-73
2024/01/05 05:47:37;;;;;;;7.18;3.60;;;;;;;-146.82;100.00;71671.09;5026191;28;20084;-73
2024/01/05 05:50:08;;;;;;;6.90;4.00;;;;;;;-146.82;100.00;71671.09;5029536;28;20438;-77
2024/01/05 05:52:35;;;;;;;6.40;3.38;;;;;;;-146.82;100.00;71671.09;5025105;28;20025;-76
2024/01/05 05:55:00;;;;;;;7.53;3.28;;;;;;;-146.82;100.00;71671.09;5025622;28;20048;-75
2024/01/05 05:57:27;;;;;;;5.45;3.20;;;;;;;-146.82;100.00;71671.09;5013597;28;20042;-75
2024/01/05 05:59:53;;;;;;;7.20;3.40;;;;;;;-146.82;100.00;71671.09;5024246;28;20029;-79
2024/01/05 06:02:20;;;;;;;6.00;3.63;;;;;;;-146.82;100.00;71671.09;5023252;28;20428;-76
2024/01/05 06:04:51;;;;;;;6.05;3.78;;;;;;;-146.82;100.00;71671.09;5022940;28;20044;-75
2024/01/05 06:07:17;;;;;;;4.53;3.42;;;;;;;-146.82;100.00;71671.09;5023151;28;20092;-74
2024/01/05 06:09:48;;;;;;;5.65;3.22;;;;;;;-146.82;100.00;71671.09;5022095;28;20053;-77
2024/01/05 06:12:14;;;;;;;6.03;4.20;;;;;;;-146.82;100.00;71671.09;5023547;28;20378;-77
2024/01/05 06:14:41;;;;;;;5.90;4.05;;;;;;;-146.82;100.00;71671.09;5022851;28;20558;-79
2024/01/05 06:17:07;;;;;;;7.18;3.70;;;;;;;-146.82;100.00;71671.09;5022981;28;20044;-80
2024/01/05 06:19:33;;;;;;;7.65;3.80;;;;;;;-146.82;100.00;71671.09;5023361;28;20112;-79
2024/01/05 06:22:02;;;;;;;6.50;3.42;;;;;;;-146.82;100.00;71671.09;5022024;28;20026;-77
2024/01/05 06:24:29;;;;;;;5.13;3.88;;;;;;;-146.82;100.00;71671.09;5012592;28;20045;-76
2024/01/05 06:26:54;;;;;;;4.45;2.83;;;;;;;-146.82;100.00;71671.09;5013786;28;20502;-77
2024/01/05 06:29:19;;;;;;;3.92;2.83;;;;;;;-146.82;100.00;71671.09;5015205;28;20022;-79
2024/01/05 06:31:45;;;;;;;3.65;2.58;;;;;;;-146.82;100.00;71671.09;4998517;28;20029;-80
2024/01/05 06:34:10;;;;;;;3.45;2.78;;;;;;;-146.82;100.00;71671.09;5015948;28;20057;-77
2024/01/05 06:36:36;;;;;;;7.57;3.53;;;;;;;-146.82;100.00;71671.09;5016140;28;20025;-76
2024/01/05 06:39:01;;;;;;;5.82;3.63;;;;;;;-146.82;100.00;71671.09;5016130;28;20460;-76
2024/01/05 06:41:27;;;;;;;5.47;3.55;;;;;;;-146.82;100.00;71671.09;5016009;28;20026;-77
2024/01/05 06:43:52;;;;;;;5.32;3.53;;;;;;;-146.82;100.00;71671.09;5014954;28;20379;-76
2024/01/05 06:46:18;;;;;;;6.57;3.88;;;;;;;-146.82;100.00;71671.09;5014886;28;20192;-76
2024/01/05 06:48:43;;;;;;;4.85;3.10;;;;;;;-146.82;100.00;71671.09;5015893;28;20566;-77
2024/01/05 06:51:09;;;;;;;6.63;3.72;;;;;;;-146.82;100.00;71671.09;5015927;28;20467;-78
2024/01/05 06:53:34;;;;;;;8.73;4.55;;;;;;;-146.82;100.00;71671.09;5019044;28;20025;-78
2024/01/05 06:56:00;;;;;;;7.63;4.38;;;;;;;-146.82;100.00;71671.09;5022647;28;20026;-76
2024/01/05 06:58:27;;;;;;;6.00;3.92;;;;;;;-146.82;100.00;71671.09;5018827;28;20110;-73
2024/01/05 07:00:52;;;;;;;6.10;3.83;;;;;;;-146.82;100.00;71671.09;5021863;28;20049;-75
2024/01/05 07:03:18;;;;;;;7.50;5.20;;;;;;;-146.82;100.00;71671.09;5026480;28;20028;-76
2024/01/05 07:05:43;;;;;;;6.45;4.78;;;;;;;-146.82;100.00;71671.09;5025881;28;20033;-75
2024/01/05 07:08:09;;;;;;;6.88;4.25;;;;;;;-146.82;100.00;71671.09;5015288;28;20360;-76
2024/01/05 07:10:35;;;;;;;6.80;4.75;;;;;;;-146.82;100.00;71671.09;5013233;28;20021;-77
2024/01/05 07:13:00;;;;;;;6.88;5.50;;;;;;;-146.82;100.00;71671.09;5013245;28;20054;-77
2024/01/05 07:15:25;;;;;;;8.82;5.72;;;;;;;-146.82;100.00;71671.09;5015808;28;20025;-76
2024/01/05 07:17:52;;;;;;;8.35;6.15;;;;;;;-146.82;100.00;71671.09;5024427;28;20029;-74
2024/01/05 07:20:19;;;;;;;12.82;5.75;;;;;;;-146.82;100.00;71671.09;5023813;28;20062;-75
2024/01/05 07:22:45;;;;;;;8.50;6.25;;;;;;;-146.82;100.00;71671.09;5025778;28;20084;-78
2024/01/05 07:25:11;;;;;;;11.88;7.00;;;;;;;-146.82;100.00;71671.09;5021491;28;20072;-74
2024/01/05 07:27:38;;;;;;;11.82;7.30;;;;;;;-146.82;100.00;71671.09;5028622;28;20410;-76
2024/01/05 07:30:06;;;;;;;13.82;7.45;;;;;;;-146.82;100.00;71671.09;5033650;28;20033;-75
2024/01/05 07:32:33;;;;;;;15.27;8.02;;;;;;;-146.82;100.00;71671.09;5040694;28;20044;-75
2024/01/05 07:34:59;;;;;;;15.93;8.43;;;;;;;-146.82;100.00;71671.09;5035257;28;20058;-75
2024/01/05 07:37:24;;;;;;;13.65;7.82;;;;;;;-146.82;100.00;71671.09;5034472;28;20061;-76
2024/01/05 07:39:50;;;;;;;13.65;7.97;;;;;;;-146.82;100.00;71671.09;5034520;28;20029;-77
2024/01/05 07:42:15;;;;;;;12.95;7.97;;;;;;;-146.82;100.00;71671.09;5034865;28;20568;-76
2024/01/05 07:44:43;;;;;;;13.90;8.25;;;;;;;-146.82;100.00;71671.09;5034527;28;20025;-76
2024/01/05 07:47:11;;;;;;;14.43;7.47;;;;;;;-146.82;100.00;71671.09;5034315;28;20049;-76
2024/01/05 07:49:36;;;;;;;10.88;6.78;;;;;;;-146.82;100.00;71671.09;5032892;28;20041;-75
2024/01/05 07:52:04;;;;;;;9.57;6.47;;;;;;;-146.82;100.00;71671.09;5033106;28;20028;-76
2024/01/05 07:54:29;;;;;;;10.40;7.15;;;;;;;-146.82;100.00;71671.09;5034241;28;20036;-77
2024/01/05 07:56:56;;;;;;;13.10;7.80;;;;;;;-146.82;100.00;71671.09;5034236;28;20017;-77
2024/01/05 07:59:22;;;;;;;13.18;7.40;;;;;;;-146.82;100.00;71671.09;5034188;28;20021;-76
2024/01/05 08:01:54;;;;;;;12.70;7.10;;;;;;;-146.82;100.00;71671.09;5032480;28;20038;-79
2024/01/05 08:04:20;;;;;;;12.40;7.40;;;;;;;-146.82;100.00;71671.09;5031665;28;20112;-78
2024/01/05 08:06:50;;;;;;;12.65;7.75;;;;;;;-146.82;100.00;71671.09;5036852;28;20116;-75
2024/01/05 08:09:17;;;;;;;13.88;7.18;;;;;;;-146.82;100.00;71671.09;5052859;28;20035;-76
2024/01/05 08:11:43;;;;;;;11.80;6.93;;;;;;;-146.82;100.00;71671.09;5052883;28;20029;-78
2024/01/05 08:14:09;;;;;;;11.43;7.00;;;;;;;-146.82;100.00;71671.09;5052658;28;20043;-77
2024/01/05 08:16:35;;;;;;;10.68;6.70;;;;;;;-146.82;100.00;71671.09;5052446;28;20033;-77
2024/01/05 08:19:01;;;;;;;11.30;6.65;;;;;;;-146.82;100.00;71671.09;5035010;28;20033;-78
2024/01/05 08:21:26;;;;;;;10.57;6.63;;;;;;;-146.82;100.00;71671.09;5052152;28;20052;-77
2024/01/05 08:23:52;;;;;;;11.88;5.68;;;;;;;-146.82;100.00;71671.09;5053367;28;20086;-79
2024/01/05 08:26:21;;;;;;;10.18;6.10;;;;;;;-146.82;100.00;71671.09;5052283;28;20036;-76
2024/01/05 08:28:47;;;;;;;10.18;6.13;;;;;;;-146.82;100.00;71671.09;5053916;28;20023;-76
2024/01/05 08:31:14;;;;;;;10.23;6.63;;;;;;;-146.82;100.00;71671.09;5052495;28;20048;-77
2024/01/05 08:33:40;;;;;;;8.73;5.15;;;;;;;-146.82;100.00;71671.09;5053190;28;20165;-76
2024/01/05 08:36:07;;;;;;;7.65;5.20;;;;;;;-146.82;100.00;71671.09;5053382;28;20094;-76
2024/01/05 08:38:32;;;;;;;6.97;4.25;;;;;;;-146.82;100.00;71671.09;5051997;28;20025;-75
2024/01/05 08:41:00;;;;;;;7.80;4.70;;;;;;;-146.82;100.00;71671.09;5023960;28;20040;-78
2024/01/05 08:43:25;;;;;;;8.88;5.30;;;;;;;-146.82;100.00;71671.09;5013876;28;20486;-76
2024/01/05 08:45:51;;;;;;;7.85;4.25;;;;;;;-146.82;100.00;71671.09;5012780;28;20025;-76
2024/01/05 08:48:16;;;;;;;9.18;4.20;;;;;;;-146.82;100.00;71671.09;5012040;28;20018;-78
2024/01/05 08:50:42;;;;;;;8.20;4.47;;;;;;;-146.82;100.00;71671.09;5012927;28;20395;-77
2024/01/05 08:53:09;;;;;;;8.73;4.95;;;;;;;-146.82;100.00;71671.09;5013569;28;20025;-77
2024/01/05 08:55:35;;;;;;;7.78;4.03;;;;;;;-146.82;100.00;71671.09;5013184;28;20057;-75
2024/01/05 08:58:02;;;;;;;5.88;4.13;;;;;;;-146.82;100.00;71671.09;5013568;28;20026;-77
2024/01/05 09:00:28;;;;;;;6.22;4.25;;;;;;;-146.82;100.00;71671.09;5012072;28;20459;-76
2024/01/05 09:02:56;;;;;;;8.18;4.85;;;;;;;-146.82;100.00;71671.09;5012053;28;20045;-77
2024/01/05 09:05:22;;;;;;;8.43;5.50;;;;;;;-146.82;100.00;71671.09;5013373;28;20049;-77
2024/01/05 09:07:48;;;;;;;9.60;5.38;;;;;;;-146.82;100.00;71671.09;5013536;28;20030;-77
2024/01/05 09:10:15;;;;;;;9.75;6.30;;;;;;;-146.82;100.00;71671.09;5013579;28;20022;-76
2024/01/05 09:12:41;;;;;;;8.93;5.22;;;;;;;-146.82;100.00;71671.09;5013616;28;20031;-78
2024/01/05 09:15:09;;;;;;;7.43;5.32;;;;;;;-146.82;100.00;71671.09;5013405;28;20081;-75
2024/01/05 09:17:35;;;;;;;7.32;5.15;;;;;;;-146.82;100.00;71671.09;5021841;28;20021;-79
2024/01/05 09:20:04;;;;;;;10.20;5.82;;;;;;;-146.82;100.00;71671.09;5031307;28;20107;-75
2024/01/05 09:22:30;;;;;;;13.10;6.18;;;;;;;-146.82;100.00;71671.09;5032855;28;20017;-75
2024/01/05 09:24:57;;;;;;;10.02;5.82;;;;;;;-146.82;100.00;71671.09;5032753;28;20099;-76
2024/01/05 09:27:22;;;;;;;9.90;6.03;;;;;;;-146.82;100.00;71671.09;5030764;28;20076;-75
2024/01/05 09:29:50;;;;;;;11.63;6.80;;;;;;;-146.82;100.00;71671.09;5017474;28;20422;-78
2024/01/05 09:32:17;;;;;;;11.00;6.45;;;;;;;-146.82;100.00;71671.09;5015533;28;20181;-76
2024/01/05 09:34:45;;;;;;;12.32;7.60;;;;;;;-146.82;100.00;71671.09;5014499;28;20030;-76
2024/01/05 09:37:11;;;;;;;9.35;6.63;;;;;;;-146.82;100.00;71671.09;5015539;28;20034;-77
2024/01/05 09:39:36;;;;;;;10.20;6.75;;;;;;;-146.82;100.00;71671.09;5014489;28;20041;-75
2024/01/05 09:42:03;;;;;;;10.07;6.85;;;;;;;-146.82;100.00;71671.09;5015630;28;20033;-75
2024/01/05 09:44:43;;;;;;;10.23;6.50;;;;;;;-146.82;100.00;71671.09;5015832;28;20049;-76
2024/01/05 09:47:10;;;;;;;11.50;6.75;;;;;;;-146.82;100.00;71671.09;5015369;28;20036;-78
2024/01/05 09:49:39;;;;;;;9.50;7.05;;;;;;;-146.82;100.00;71671.09;5015928;28;20022;-78
2024/01/05 09:52:13;;;;;;;11.15;7.38;;;;;;;-146.82;100.00;71671.09;5015639;28;20041;-78
2024/01/05 09:54:41;;;;;;;12.73;7.60;;;;;;;-146.82;100.00;71671.09;5017370;28;20053;-79
2024/01/05 09:57:12;;;;;;;11.70;6.85;;;;;;;-146.82;100.00;71671.09;5017121;28;20021;-78
2024/01/05 09:59:40;;;;;;;12.38;7.65;;;;;;;-146.82;100.00;71671.09;5017368;28;20525;-79
2024/01/05 10:02:13;;;;;;;12.40;7.68;;;;;;;-146.82;100.00;71671.09;5017144;28;20038;-79
2024/01/05 10:04:40;;;;;;;10.27;6.60;;;;;;;-146.82;100.00;71671.09;5015351;28;20033;-77
2024/01/05 10:07:06;;;;;;;11.80;6.90;;;;;;;-146.82;100.00;71671.09;5015772;28;20026;-78
2024/01/05 10:09:32;;;;;;;9.48;6.43;;;;;;;-146.82;100.00;71671.09;5015510;28;20084;-78
2024/01/05 10:11:58;;;;;;;9.45;6.63;;;;;;;-146.82;100.00;71671.09;4998856;28;20080;-78
2024/01/05 10:14:27;;;;;;;11.57;7.20;;;;;;;-146.82;100.00;71671.09;4998919;28;20030;-79
2024/01/05 10:17:13;;;;;;;10.05;7.00;;;;;;;-146.82;100.00;71671.09;5015346;28;20026;-78
2024/01/05 10:19:41;;;;;;;8.88;6.32;;;;;;;-146.82;100.00;71671.09;5014523;28;20128;-78
2024/01/05 10:22:18;;;;;;;9.65;6.72;;;;;;;-146.82;100.00;71671.09;5016036;28;20030;-78
2024/01/05 10:24:44;;;;;;;11.63;7.40;;;;;;;-146.82;100.00;71671.09;5014838;28;20036;-79
2024/01/05 10:27:13;;;;;;;10.50;7.22;;;;;;;-146.82;100.00;71671.09;5015257;28;20025;-79
2024/01/05 10:29:43;;;;;;;10.15;6.70;;;;;;;-146.82;100.00;71671.09;5015089;28;20025;-77
2024/01/05 10:32:17;;;;;;;14.40;7.30;;;;;;;-146.82;100.00;71671.09;5014665;28;20109;-80
2024/01/05 10:34:48;;;;;;;11.88;7.15;;;;;;;-146.82;100.00;71671.09;5016420;28;20100;-79
2024/01/05 10:37:17;;;;;;;15.93;7.80;;;;;;;-146.82;100.00;71671.09;5014720;28;20193;-78
2024/01/05 10:39:48;;;;;;;10.50;6.38;;;;;;;-146.82;100.00;71671.09;5016378;28;20029;-80
2024/01/05 10:42:24;;;;;;;13.75;8.15;;;;;;;-146.82;100.00;71671.09;4997632;28;20109;-78
2024/01/05 10:44:53;;;;;;;11.02;7.18;;;;;;;-146.82;100.00;71671.09;5014810;28;20038;-81
2024/01/05 10:47:23;;;;;;;13.43;8.02;;;;;;;-146.82;100.00;71671.09;5014581;28;20113;-82
2024/01/05 10:49:51;;;;;;;12.77;8.00;;;;;;;-146.82;100.00;71671.09;4998147;28;20489;-80
2024/01/05 10:52:18;;;;;;;14.63;7.68;;;;;;;-146.82;100.00;71671.09;4997785;28;20029;-81
2024/01/05 10:54:55;;;;;;;18.30;8.95;;;;;;;-146.82;100.00;71671.09;4997725;28;20112;-81
2024/01/05 10:57:23;;;;;;;13.98;8.25;;;;;;;-146.82;100.00;71671.09;5014298;28;20042;-79
2024/01/05 10:59:57;;;;;;;13.77;8.32;;;;;;;-146.82;100.00;71671.09;5014784;28;20376;-82
2024/01/05 11:02:40;;;;;;;15.60;9.23;;;;;;;-146.82;100.00;71671.09;5015629;28;20033;-81
2024/01/05 11:05:08;;;;;;;16.15;8.43;;;;;;;-146.82;100.00;71671.09;5015904;28;20018;-80
2024/01/05 11:07:36;;;;;;;14.30;8.65;;;;;;;-146.82;100.00;71671.09;5014363;28;20021;-81
2024/01/05 11:10:39;;;;;;;16.50;9.35;;;;;;;-146.82;100.00;71671.09;5015393;28;20490;-81